createdAt,value
2019-05-30T00:00:07.742Z,102188.70
2019-05-30T00:02:23.356Z,102199.94
2019-05-30T00:04:50.401Z,102194.51
2019-05-30T00:07:17.201Z,102192.67
2019-05-30T00:09:44.147Z,102189.25
2019-05-30T00:12:11.169Z,102190.94
2019-05-30T00:14:38.229Z,102185.70
2019-05-30T00:17:05.646Z,102179.52
2019-05-30T00:19:34.005Z,102180.81
2019-05-30T00:22:01.111Z,102188.12
2019-05-30T00:24:28.278Z,102183.22
2019-05-30T00:26:56.163Z,102183.48
2019-05-30T00:29:23.270Z,102188.27
2019-05-30T00:31:50.223Z,102186.52
2019-05-30T00:34:17.345Z,102182.09
2019-05-30T00:36:44.522Z,102177.36
2019-05-30T00:39:11.437Z,102180.36
2019-05-30T00:41:38.380Z,102179.41
2019-05-30T00:44:06.287Z,102179.39
2019-05-30T00:46:33.325Z,102180.58
2019-05-30T00:49:00.233Z,102185.15
2019-05-30T00:51:27.382Z,102191.07
2019-05-30T00:53:54.440Z,102179.00
2019-05-30T00:56:21.209Z,102178.16
2019-05-30T00:58:47.989Z,102182.61
2019-05-30T01:01:15.075Z,102182.66
2019-05-30T01:03:42.162Z,102183.55
2019-05-30T01:06:08.893Z,102180.90
2019-05-30T01:08:35.744Z,102179.86
2019-05-30T01:11:03.190Z,102183.98
2019-05-30T01:13:30.030Z,102176.23
2019-05-30T01:15:57.365Z,102176.52
2019-05-30T01:18:24.628Z,102177.41
2019-05-30T01:20:51.896Z,102183.83
2019-05-30T01:23:19.023Z,102185.15
2019-05-30T01:25:45.795Z,102189.94
2019-05-30T01:28:12.746Z,102183.75
2019-05-30T01:30:39.515Z,102185.15
2019-05-30T01:33:07.899Z,102183.47
2019-05-30T01:35:35.386Z,102189.61
2019-05-30T01:38:02.285Z,102191.59
2019-05-30T01:40:29.153Z,102189.77
2019-05-30T01:42:56.332Z,102189.83
2019-05-30T01:45:24.297Z,102183.52
2019-05-30T01:47:51.432Z,102189.83
2019-05-30T01:50:18.621Z,102194.25
2019-05-30T01:52:45.609Z,102198.41
2019-05-30T01:55:12.724Z,102202.13
2019-05-30T01:57:39.473Z,102199.44
2019-05-30T02:00:18.758Z,102192.78
2019-05-30T02:02:35.922Z,102195.47
2019-05-30T02:05:03.357Z,102188.75
2019-05-30T02:07:30.696Z,102192.23
2019-05-30T02:09:57.440Z,102188.27
2019-05-30T02:12:25.657Z,102185.61
2019-05-30T02:14:52.432Z,102188.78
2019-05-30T02:17:19.163Z,102185.61
2019-05-30T02:19:46.450Z,102189.95
2019-05-30T02:22:13.453Z,102184.52
2019-05-30T02:24:40.245Z,102186.37
2019-05-30T02:27:08.285Z,102190.86
2019-05-30T02:29:35.261Z,102190.75
2019-05-30T02:32:03.108Z,102183.37
2019-05-30T02:34:30.585Z,102194.72
2019-05-30T02:36:58.190Z,102191.23
2019-05-30T02:39:25.124Z,102200.15
2019-05-30T02:41:51.905Z,102196.53
2019-05-30T02:44:18.885Z,102201.39
2019-05-30T02:46:46.848Z,102204.49
2019-05-30T02:49:14.073Z,102199.02
2019-05-30T02:51:41.254Z,102201.64
2019-05-30T02:54:09.310Z,102213.05
2019-05-30T02:56:36.785Z,102211.26
2019-05-30T02:59:04.338Z,102216.19
2019-05-30T03:01:32.814Z,102216.75
2019-05-30T03:04:01.661Z,102220.37
2019-05-30T03:06:28.306Z,102224.02
2019-05-30T03:08:55.086Z,102219.77
2019-05-30T03:11:22.377Z,102222.40
2019-05-30T03:13:49.235Z,102218.84
2019-05-30T03:16:15.970Z,102223.02
2019-05-30T03:18:43.099Z,102224.72
2019-05-30T03:21:12.506Z,102223.71
2019-05-30T03:23:38.682Z,102220.89
2019-05-30T03:26:09.189Z,102224.13
2019-05-30T03:28:34.560Z,102224.30
2019-05-30T03:31:05.697Z,102219.77
2019-05-30T03:33:40.935Z,102213.77
2019-05-30T03:36:04.915Z,102228.58
2019-05-30T03:38:30.126Z,102221.00
2019-05-30T03:40:57.275Z,102229.64
2019-05-30T03:43:24.115Z,102221.94
2019-05-30T03:45:51.733Z,102223.72
2019-05-30T03:48:20.394Z,102220.05
2019-05-30T03:50:49.320Z,102221.49
2019-05-30T03:53:16.461Z,102223.92
2019-05-30T03:55:45.137Z,102226.92
2019-05-30T03:58:14.313Z,102226.36
2019-05-30T04:00:45.819Z,102225.62
2019-05-30T04:03:18.987Z,102225.83
2019-05-30T04:05:47.646Z,102226.12
2019-05-30T04:08:16.358Z,102233.91
2019-05-30T04:10:44.939Z,102230.78
2019-05-30T04:13:32.223Z,102235.67
2019-05-30T04:15:59.163Z,102245.86
2019-05-30T04:18:26.010Z,102246.98
2019-05-30T04:20:53.174Z,102243.84
2019-05-30T04:23:20.004Z,102245.79
2019-05-30T04:25:48.013Z,102249.31
2019-05-30T04:28:16.264Z,102246.72
2019-05-30T04:30:43.246Z,102253.31
2019-05-30T04:33:23.693Z,102258.01
2019-05-30T04:35:39.362Z,102256.85
2019-05-30T04:38:06.437Z,102257.41
2019-05-30T04:40:33.191Z,102263.02
2019-05-30T04:43:00.199Z,102257.42
2019-05-30T04:45:29.417Z,102264.59
2019-05-30T04:47:56.493Z,102259.19
2019-05-30T04:50:23.691Z,102258.61
2019-05-30T04:52:50.437Z,102267.20
2019-05-30T04:55:18.549Z,102270.82
2019-05-30T04:57:45.878Z,102267.37
2019-05-30T05:00:13.062Z,102267.78
2019-05-30T05:02:40.453Z,102267.59
2019-05-30T05:05:07.829Z,102269.77
2019-05-30T05:07:34.636Z,102269.75
2019-05-30T05:10:01.609Z,102275.64
2019-05-30T05:12:28.749Z,102265.88
2019-05-30T05:14:55.595Z,102265.77
2019-05-30T05:17:23.666Z,102268.08
2019-05-30T05:19:52.091Z,102269.04
2019-05-30T05:22:19.114Z,102265.42
2019-05-30T05:24:45.983Z,102270.74
2019-05-30T05:27:13.611Z,102276.52
2019-05-30T05:29:40.540Z,102273.14
2019-05-30T05:32:07.382Z,102276.05
2019-05-30T05:34:34.331Z,102281.30
2019-05-30T05:37:01.278Z,102276.84
2019-05-30T05:39:28.394Z,102272.99
2019-05-30T05:41:55.300Z,102273.18
2019-05-30T05:44:22.646Z,102270.09
2019-05-30T05:46:49.475Z,102277.45
2019-05-30T05:49:16.423Z,102270.55
2019-05-30T05:51:43.291Z,102280.05
2019-05-30T05:54:12.057Z,102281.70
2019-05-30T05:56:38.946Z,102279.05
2019-05-30T05:59:06.478Z,102284.69
2019-05-30T06:01:33.620Z,102291.68
2019-05-30T06:04:12.575Z,102283.60
2019-05-30T06:06:31.531Z,102281.79
2019-05-30T06:08:58.210Z,102281.77
2019-05-30T06:11:25.072Z,102279.56
2019-05-30T06:13:51.860Z,102282.78
2019-05-30T06:16:19.582Z,102274.59
2019-05-30T06:18:46.550Z,102267.91
2019-05-30T06:21:13.472Z,102278.64
2019-05-30T06:23:40.347Z,102278.27
2019-05-30T06:26:09.217Z,102279.42
2019-05-30T06:28:35.998Z,102286.17
2019-05-30T06:31:03.579Z,102278.31
2019-05-30T06:33:31.021Z,102292.67
2019-05-30T06:35:58.258Z,102294.83
2019-05-30T06:38:27.381Z,102290.94
2019-05-30T06:40:54.905Z,102292.70
2019-05-30T06:43:24.352Z,102291.55
2019-05-30T06:45:52.145Z,102297.02
2019-05-30T06:48:20.643Z,102291.31
2019-05-30T06:50:48.604Z,102295.89
2019-05-30T06:53:15.910Z,102295.55
2019-05-30T06:55:43.305Z,102290.27
2019-05-30T06:58:10.599Z,102292.92
2019-05-30T07:00:37.912Z,102291.61
2019-05-30T07:03:06.112Z,102292.93
2019-05-30T07:05:34.703Z,102287.63
2019-05-30T07:08:03.311Z,102297.97
2019-05-30T07:10:31.134Z,102292.75
2019-05-30T07:12:58.750Z,102303.18
2019-05-30T07:15:27.253Z,102305.48
2019-05-30T07:17:55.272Z,102293.27
2019-05-30T07:20:23.523Z,102289.38
2019-05-30T07:22:51.065Z,102289.38
2019-05-30T07:25:18.993Z,102292.70
2019-05-30T07:27:46.651Z,102287.54
2019-05-30T07:30:14.679Z,102287.52
2019-05-30T07:32:43.013Z,102270.37
2019-05-30T07:35:10.604Z,102276.11
2019-05-30T07:37:38.263Z,102272.98
2019-05-30T07:40:08.128Z,102272.16
2019-05-30T07:42:35.355Z,102267.27
2019-05-30T07:45:03.052Z,102273.84
2019-05-30T07:47:30.518Z,102275.15
2019-05-30T07:49:58.067Z,102271.22
2019-05-30T07:52:26.467Z,102272.97
2019-05-30T07:54:55.161Z,102275.67
2019-05-30T07:57:22.755Z,102280.98
2019-05-30T07:59:50.108Z,102276.05
2019-05-30T08:02:17.456Z,102273.40
2019-05-30T08:04:46.931Z,102278.33
2019-05-30T08:07:14.386Z,102272.14
2019-05-30T08:09:42.905Z,102276.13
2019-05-30T08:12:10.032Z,102265.94
2019-05-30T08:14:38.088Z,102255.20
2019-05-30T08:17:05.955Z,102260.03
2019-05-30T08:19:34.389Z,102249.56
2019-05-30T08:22:01.995Z,102250.84
2019-05-30T08:24:30.151Z,102248.36
2019-05-30T08:26:57.799Z,102246.14
2019-05-30T08:29:25.301Z,102243.80
2019-05-30T08:31:52.412Z,102246.31
2019-05-30T08:34:19.621Z,102240.42
2019-05-30T08:36:47.472Z,102243.47
2019-05-30T08:39:15.015Z,102240.00
2019-05-30T08:41:42.345Z,102243.63
2019-05-30T08:44:10.046Z,102247.52
2019-05-30T08:46:37.935Z,102243.81
2019-05-30T08:49:05.889Z,102248.25
2019-05-30T08:51:34.141Z,102236.47
2019-05-30T08:54:01.563Z,102236.50
2019-05-30T08:56:30.302Z,102232.70
2019-05-30T08:58:58.062Z,102232.70
2019-05-30T09:01:25.481Z,102228.19
2019-05-30T09:03:52.669Z,102222.30
2019-05-30T09:06:19.851Z,102222.06
2019-05-30T09:08:47.440Z,102224.45
2019-05-30T09:11:14.997Z,102220.20
2019-05-30T09:13:42.703Z,102214.52
2019-05-30T09:16:10.204Z,102220.30
2019-05-30T09:18:38.536Z,102210.73
2019-05-30T09:21:07.211Z,102210.83
2019-05-30T09:23:34.572Z,102207.61
2019-05-30T09:26:02.178Z,102202.91
2019-05-30T09:28:29.469Z,102201.84
2019-05-30T09:30:57.226Z,102195.18
2019-05-30T09:33:25.732Z,102198.78
2019-05-30T09:35:53.209Z,102208.65
2019-05-30T09:38:20.512Z,102201.02
2019-05-30T09:40:48.001Z,102204.61
2019-05-30T09:43:15.444Z,102191.32
2019-05-30T09:45:43.910Z,102198.64
2019-05-30T09:48:11.601Z,102190.97
2019-05-30T09:50:42.007Z,102205.97
2019-05-30T09:53:08.488Z,102196.54
2019-05-30T09:55:35.934Z,102188.05
2019-05-30T09:58:03.543Z,102177.72
2019-05-30T10:00:33.163Z,102189.94
2019-05-30T10:03:00.567Z,102184.40
2019-05-30T10:05:28.171Z,102187.88
2019-05-30T10:07:56.812Z,102187.98
2019-05-30T10:10:24.554Z,102191.27
2019-05-30T10:12:52.769Z,102192.83
2019-05-30T10:15:22.190Z,102188.92
2019-05-30T10:17:52.167Z,102187.34
2019-05-30T10:20:19.348Z,102182.37
2019-05-30T10:22:48.662Z,102178.45
2019-05-30T10:25:17.048Z,102174.23
2019-05-30T10:27:46.218Z,102170.23
2019-05-30T10:30:16.107Z,102168.40
2019-05-30T10:32:43.629Z,102166.01
2019-05-30T10:35:11.848Z,102176.41
2019-05-30T10:37:39.173Z,102168.87
2019-05-30T10:40:07.678Z,102165.55
2019-05-30T10:42:35.612Z,102165.62
2019-05-30T10:45:03.959Z,102159.47
2019-05-30T10:47:31.594Z,102157.02
2019-05-30T10:49:59.295Z,102161.39
2019-05-30T10:52:26.898Z,102153.27
2019-05-30T10:54:54.045Z,102148.61
2019-05-30T10:57:21.628Z,102145.39
2019-05-30T10:59:48.896Z,102140.20
2019-05-30T11:02:17.511Z,102135.76
2019-05-30T11:04:45.938Z,102131.63
2019-05-30T11:07:25.067Z,102133.25
2019-05-30T11:09:59.712Z,102126.89
2019-05-30T11:12:27.273Z,102121.76
2019-05-30T11:14:55.312Z,102124.34
2019-05-30T11:17:22.917Z,102117.09
2019-05-30T11:19:50.150Z,102121.20
2019-05-30T11:22:18.578Z,102111.06
2019-05-30T11:24:48.137Z,102103.48
2019-05-30T11:27:16.297Z,102098.42
2019-05-30T11:29:43.824Z,102097.17
2019-05-30T11:32:11.331Z,102096.61
2019-05-30T11:34:38.678Z,102101.34
2019-05-30T11:37:18.781Z,102103.51
2019-05-30T11:39:35.218Z,102095.84
2019-05-30T11:42:04.066Z,102092.59
2019-05-30T11:44:31.838Z,102100.41
2019-05-30T11:46:59.825Z,102100.21
2019-05-30T11:49:27.362Z,102104.66
2019-05-30T11:51:55.763Z,102104.26
2019-05-30T11:54:25.618Z,102092.56
2019-05-30T11:56:53.993Z,102088.13
2019-05-30T11:59:21.722Z,102084.11
2019-05-30T12:01:50.242Z,102076.58
2019-05-30T12:04:18.184Z,102079.06
2019-05-30T12:06:45.820Z,102075.06
2019-05-30T12:09:14.638Z,102083.11
2019-05-30T12:11:41.842Z,102068.44
2019-05-30T12:14:09.568Z,102072.40
2019-05-30T12:16:37.572Z,102061.75
2019-05-30T12:19:05.251Z,102044.13
2019-05-30T12:21:32.586Z,102047.95
2019-05-30T12:24:00.463Z,102049.58
2019-05-30T12:26:28.212Z,102053.51
2019-05-30T12:28:56.013Z,102054.61
2019-05-30T12:31:23.880Z,102055.34
2019-05-30T12:33:52.330Z,102055.65
2019-05-30T12:36:20.365Z,102049.02
2019-05-30T12:38:47.956Z,102042.06
2019-05-30T12:41:15.688Z,102046.53
2019-05-30T12:43:43.492Z,102040.06
2019-05-30T12:46:11.054Z,102040.19
2019-05-30T12:48:38.293Z,102035.33
2019-05-30T12:51:05.691Z,102029.57
2019-05-30T12:53:33.076Z,102032.23
2019-05-30T12:56:00.772Z,102025.61
2019-05-30T12:58:28.636Z,102035.66
2019-05-30T13:00:56.635Z,102030.27
2019-05-30T13:03:23.876Z,102036.09
2019-05-30T13:05:51.231Z,102029.94
2019-05-30T13:08:21.893Z,102031.53
2019-05-30T13:10:48.189Z,102039.38
2019-05-30T13:13:15.485Z,102026.70
2019-05-30T13:15:43.411Z,102024.77
2019-05-30T13:18:10.001Z,102029.86
2019-05-30T13:20:37.568Z,102031.38
2019-05-30T13:23:04.756Z,102022.41
2019-05-30T13:25:32.642Z,102036.53
2019-05-30T13:28:03.213Z,102039.77
2019-05-30T13:30:28.436Z,102034.63
2019-05-30T13:32:56.550Z,102026.52
2019-05-30T13:35:23.989Z,102025.48
2019-05-30T13:37:51.004Z,102028.41
2019-05-30T13:40:24.877Z,102028.54
2019-05-30T13:42:47.459Z,102022.98
2019-05-30T13:45:14.382Z,102021.92
2019-05-30T13:47:41.415Z,102025.94
2019-05-30T13:50:12.947Z,102020.64
2019-05-30T13:52:37.789Z,102021.16
2019-05-30T13:55:05.823Z,102027.40
2019-05-30T13:57:33.048Z,102007.36
2019-05-30T13:59:59.925Z,102010.44
2019-05-30T14:02:26.762Z,102006.97
2019-05-30T14:04:53.456Z,102007.77
2019-05-30T14:07:20.331Z,102007.98
2019-05-30T14:09:47.637Z,102011.99
2019-05-30T14:12:14.891Z,101999.83
2019-05-30T14:14:41.825Z,101997.27
2019-05-30T14:17:11.025Z,101999.34
2019-05-30T14:19:38.285Z,102001.38
2019-05-30T14:22:05.165Z,101999.16
2019-05-30T14:24:32.615Z,102000.83
2019-05-30T14:26:59.327Z,101997.67
2019-05-30T14:29:28.017Z,101997.17
2019-05-30T14:31:54.790Z,101994.24
2019-05-30T14:34:21.713Z,101998.33
2019-05-30T14:36:48.686Z,102001.73
2019-05-30T14:39:15.900Z,101994.16
2019-05-30T14:41:42.743Z,101993.91
2019-05-30T14:44:09.408Z,101998.88
2019-05-30T14:46:36.374Z,101991.62
2019-05-30T14:49:03.059Z,101992.08
2019-05-30T14:51:31.184Z,101983.09
2019-05-30T14:53:58.155Z,101987.23
2019-05-30T14:56:24.936Z,101990.33
2019-05-30T14:58:51.777Z,101988.73
2019-05-30T15:01:20.159Z,101988.06
2019-05-30T15:03:46.903Z,101983.89
2019-05-30T15:06:16.333Z,101979.37
2019-05-30T15:08:42.840Z,101987.70
2019-05-30T15:11:09.706Z,101979.06
2019-05-30T15:13:36.821Z,101982.72
2019-05-30T15:16:04.792Z,101980.86
2019-05-30T15:18:31.538Z,101976.98
2019-05-30T15:21:00.100Z,101977.61
2019-05-30T15:23:26.841Z,101980.22
2019-05-30T15:25:53.833Z,101977.88
2019-05-30T15:28:33.141Z,101982.23
2019-05-30T15:31:00.200Z,101975.47
2019-05-30T15:33:26.838Z,101977.34
2019-05-30T15:35:54.189Z,101972.53
2019-05-30T15:38:21.138Z,101973.91
2019-05-30T15:40:48.392Z,101964.61
2019-05-30T15:43:15.611Z,101966.88
2019-05-30T15:45:42.643Z,101969.72
2019-05-30T15:48:10.323Z,101961.18
2019-05-30T15:50:37.438Z,101963.54
2019-05-30T15:53:04.349Z,101963.53
2019-05-30T15:55:31.322Z,101959.66
2019-05-30T15:57:58.296Z,101964.15
2019-05-30T16:00:25.312Z,101965.53
2019-05-30T16:02:51.976Z,101965.77
2019-05-30T16:05:20.582Z,101959.30
2019-05-30T16:07:47.885Z,101959.30
2019-05-30T16:10:16.871Z,101954.41
2019-05-30T16:12:43.860Z,101956.27
2019-05-30T16:15:11.656Z,101955.42
2019-05-30T16:17:38.794Z,101955.22
2019-05-30T16:20:06.602Z,101951.55
2019-05-30T16:22:33.457Z,101955.06
2019-05-30T16:25:00.712Z,101968.81
2019-05-30T16:27:30.901Z,101959.25
2019-05-30T16:29:56.425Z,101962.06
2019-05-30T16:32:23.363Z,101952.73
2019-05-30T16:34:50.696Z,101963.62
2019-05-30T16:37:18.127Z,101957.00
2019-05-30T16:39:45.143Z,101956.07
2019-05-30T16:42:12.203Z,101950.14
2019-05-30T16:44:39.135Z,101945.55
2019-05-30T16:47:06.099Z,101945.11
2019-05-30T16:49:33.320Z,101947.92
2019-05-30T16:52:00.061Z,101956.89
2019-05-30T16:54:27.569Z,101945.33
2019-05-30T16:56:54.468Z,101939.56
2019-05-30T16:59:21.368Z,101944.26
2019-05-30T17:01:57.347Z,101948.22
2019-05-30T17:04:18.882Z,101950.06
2019-05-30T17:06:45.843Z,101948.36
2019-05-30T17:09:12.777Z,101950.10
2019-05-30T17:11:39.870Z,101946.00
2019-05-30T17:14:06.708Z,101949.28
2019-05-30T17:16:33.730Z,101946.48
2019-05-30T17:19:01.069Z,101950.03
2019-05-30T17:21:27.939Z,101946.52
2019-05-30T17:23:54.971Z,101942.14
2019-05-30T17:26:23.187Z,101939.48
2019-05-30T17:28:50.398Z,101937.88
2019-05-30T17:31:17.651Z,101942.28
2019-05-30T17:33:44.631Z,101944.20
2019-05-30T17:36:11.454Z,101941.91
2019-05-30T17:38:39.413Z,101937.91
2019-05-30T17:41:06.346Z,101945.05
2019-05-30T17:43:33.384Z,101938.53
2019-05-30T17:46:00.283Z,101946.08
2019-05-30T17:48:27.750Z,101944.78
2019-05-30T17:50:55.099Z,101943.17
2019-05-30T17:53:21.845Z,101940.09
2019-05-30T17:55:48.821Z,101946.84
2019-05-30T17:58:15.691Z,101937.97
2019-05-30T18:00:42.874Z,101942.47
2019-05-30T18:03:09.996Z,101936.80
2019-05-30T18:05:37.427Z,101943.42
2019-05-30T18:08:05.959Z,101943.03
2019-05-30T18:10:33.773Z,101941.00
2019-05-30T18:13:00.730Z,101944.67
2019-05-30T18:15:29.566Z,101949.13
2019-05-30T18:17:57.147Z,101950.05
2019-05-30T18:20:25.522Z,101954.21
2019-05-30T18:22:52.471Z,101953.33
2019-05-30T18:25:19.539Z,101945.03
2019-05-30T18:27:47.481Z,101946.83
2019-05-30T18:30:17.344Z,101950.56
2019-05-30T18:32:44.121Z,101950.54
2019-05-30T18:35:11.566Z,101955.48
2019-05-30T18:37:39.735Z,101949.31
2019-05-30T18:40:07.338Z,101952.08
2019-05-30T18:42:35.457Z,101954.76
2019-05-30T18:45:02.411Z,101958.87
2019-05-30T18:47:29.483Z,101962.94
2019-05-30T18:49:56.161Z,101961.59
2019-05-30T18:52:24.149Z,101955.95
2019-05-30T18:54:52.160Z,101961.73
2019-05-30T18:57:19.315Z,101968.43
2019-05-30T18:59:46.742Z,101964.38
2019-05-30T19:02:13.556Z,101975.59
2019-05-30T19:04:40.445Z,101972.48
2019-05-30T19:07:07.524Z,101977.88
2019-05-30T19:09:34.691Z,101983.67
2019-05-30T19:12:01.374Z,101979.28
2019-05-30T19:14:30.787Z,101973.97
2019-05-30T19:16:57.006Z,101976.80
2019-05-30T19:19:23.985Z,101978.56
2019-05-30T19:21:51.098Z,101974.98
2019-05-30T19:24:18.061Z,101977.24
2019-05-30T19:26:45.033Z,101974.16
2019-05-30T19:29:12.349Z,101971.20
2019-05-30T19:31:39.300Z,101976.16
2019-05-30T19:34:06.352Z,101971.31
2019-05-30T19:36:39.631Z,101973.64
2019-05-30T19:39:07.331Z,101975.42
2019-05-30T19:41:45.320Z,101969.72
2019-05-30T19:44:09.517Z,101974.56
2019-05-30T19:46:36.642Z,101972.80
2019-05-30T19:49:04.939Z,101974.62
2019-05-30T19:51:33.034Z,101974.55
2019-05-30T19:53:59.868Z,101971.08
2019-05-30T19:56:26.802Z,101971.55
2019-05-30T19:58:53.647Z,101962.31
2019-05-30T20:01:21.069Z,101966.86
2019-05-30T20:03:47.866Z,101967.29
2019-05-30T20:06:14.982Z,101965.12
2019-05-30T20:08:54.799Z,101971.72
2019-05-30T20:11:10.751Z,101968.66
2019-05-30T20:13:39.095Z,101966.89
2019-05-30T20:16:06.339Z,101966.45
2019-05-30T20:18:33.546Z,101972.66
2019-05-30T20:21:00.431Z,101967.77
2019-05-30T20:23:27.389Z,101962.94
2019-05-30T20:25:54.597Z,101963.83
2019-05-30T20:28:21.820Z,101968.70
2019-05-30T20:30:48.763Z,101966.48
2019-05-30T20:33:15.768Z,101966.03
2019-05-30T20:35:43.442Z,101966.03
2019-05-30T20:38:10.825Z,101969.16
2019-05-30T20:40:38.611Z,101963.86
2019-05-30T20:43:06.933Z,101967.80
2019-05-30T20:45:36.738Z,101972.23
2019-05-30T20:48:02.515Z,101969.58
2019-05-30T20:50:29.425Z,101969.14
2019-05-30T20:52:56.560Z,101962.97
2019-05-30T20:55:23.234Z,101966.50
2019-05-30T20:57:50.251Z,101962.53
2019-05-30T21:00:17.727Z,101958.11
2019-05-30T21:02:44.855Z,101961.64
2019-05-30T21:05:11.946Z,101958.55
2019-05-30T21:07:40.111Z,101963.83
2019-05-30T21:10:06.949Z,101963.79
2019-05-30T21:12:39.334Z,101959.83
2019-05-30T21:15:03.913Z,101957.16
2019-05-30T21:17:31.959Z,101957.16
2019-05-30T21:19:59.254Z,101957.14
2019-05-30T21:22:26.063Z,101956.27
2019-05-30T21:24:53.215Z,101957.60
2019-05-30T21:27:20.188Z,101954.94
2019-05-30T21:29:47.662Z,101953.59
2019-05-30T21:32:14.620Z,101957.99
2019-05-30T21:34:42.427Z,101955.34
2019-05-30T21:37:09.730Z,101962.41
2019-05-30T21:39:38.164Z,101961.05
2019-05-30T21:42:04.964Z,101960.14
2019-05-30T21:44:32.262Z,101958.42
2019-05-30T21:46:59.400Z,101961.95
2019-05-30T21:49:26.709Z,101957.09
2019-05-30T21:51:53.424Z,101956.60
2019-05-30T21:54:20.785Z,101959.75
2019-05-30T21:56:48.426Z,101955.35
2019-05-30T21:59:15.768Z,101967.61
2019-05-30T22:01:42.743Z,101960.12
2019-05-30T22:04:09.870Z,101966.67
2019-05-30T22:06:37.221Z,101964.97
2019-05-30T22:09:07.955Z,101959.70
2019-05-30T22:11:34.902Z,101969.80
2019-05-30T22:14:02.059Z,101966.64
2019-05-30T22:16:29.151Z,101965.40
2019-05-30T22:18:56.661Z,101965.40
2019-05-30T22:21:23.863Z,101967.98
2019-05-30T22:23:50.967Z,101963.65
2019-05-30T22:26:19.433Z,101968.39
2019-05-30T22:28:46.805Z,101963.11
2019-05-30T22:31:15.793Z,101963.56
2019-05-30T22:33:42.957Z,101963.54
2019-05-30T22:36:09.873Z,101963.54
2019-05-30T22:38:37.324Z,101956.98
2019-05-30T22:41:04.297Z,101955.72
2019-05-30T22:43:31.450Z,101956.53
2019-05-30T22:45:58.637Z,101949.03
2019-05-30T22:48:25.671Z,101954.32
2019-05-30T22:50:52.889Z,101958.69
2019-05-30T22:53:20.199Z,101961.36
2019-05-30T22:55:47.283Z,101961.36
2019-05-30T22:58:14.162Z,101953.44
2019-05-30T23:00:41.093Z,101953.86
2019-05-30T23:03:08.198Z,101949.80
2019-05-30T23:05:35.230Z,101950.66
2019-05-30T23:08:02.335Z,101957.20
2019-05-30T23:10:29.412Z,101951.80
2019-05-30T23:12:57.513Z,101954.56
2019-05-30T23:15:24.710Z,101954.09
2019-05-30T23:17:53.030Z,101951.87
2019-05-30T23:20:19.956Z,101954.91
2019-05-30T23:22:46.973Z,101949.70
2019-05-30T23:25:13.909Z,101954.41
2019-05-30T23:27:41.001Z,101950.48
2019-05-30T23:30:08.049Z,101950.44
2019-05-30T23:32:34.971Z,101943.80
2019-05-30T23:35:02.020Z,101944.22
2019-05-30T23:37:29.284Z,101949.50
2019-05-30T23:39:56.892Z,101947.19
2019-05-30T23:42:23.881Z,101945.08
2019-05-30T23:44:51.270Z,101945.12
2019-05-30T23:47:18.565Z,101946.05
2019-05-30T23:49:45.836Z,101951.80
2019-05-30T23:52:12.979Z,101945.20
2019-05-30T23:54:39.940Z,101952.58
2019-05-30T23:57:06.950Z,101947.72
2019-05-30T23:59:34.140Z,101953.03
